Time;durP1;ratioP1;P1;durP2;ratioP2;P2;SDS_P1;SDS_P2;PMS_P1;PMS_P2;Temp;Humidity;BMP_temperature;BMP_pressure;BME280_temperature;BME280_humidity;BME280_pressure;Samples;Min_cycle;Max_cycle;Signal;HPM_P1;HPM_P2
2021/05/21 00:00:05;;;;;;;12.40;5.37;;;;;;;9.44;100.00;98912.07;1607342;88;21025;-71
2021/05/21 00:02:33;;;;;;;12.30;5.25;;;;;;;9.45;100.00;98914.48;1591717;90;21708;-71
2021/05/21 00:05:00;;;;;;;11.97;4.95;;;;;;;9.43;100.00;98914.01;1592038;90;21068;-71
2021/05/21 00:07:26;;;;;;;15.38;5.28;;;;;;;9.42;100.00;98912.95;1592189;90;20953;-71
2021/05/21 00:09:52;;;;;;;13.62;5.70;;;;;;;9.43;100.00;98914.01;1592132;90;21115;-71
2021/05/21 00:12:19;;;;;;;10.50;5.28;;;;;;;9.44;100.00;98916.18;1592174;90;20951;-73
2021/05/21 00:14:45;;;;;;;15.20;5.60;;;;;;;9.43;100.00;98915.94;1591977;90;21115;-73
2021/05/21 00:17:12;;;;;;;17.87;6.20;;;;;;;9.41;100.00;98917.63;1608866;89;20972;-73
2021/05/21 00:19:39;;;;;;;13.25;4.80;;;;;;;9.42;100.00;98918.44;1608958;87;20961;-74
2021/05/21 00:22:06;;;;;;;14.40;5.47;;;;;;;9.41;100.00;98920.94;1608759;89;21024;-74
2021/05/21 00:24:32;;;;;;;13.22;5.25;;;;;;;9.40;100.00;98923.44;1592014;90;21017;-75
2021/05/21 00:26:59;;;;;;;9.30;4.97;;;;;;;9.38;100.00;98924.32;1608715;89;21065;-74
2021/05/21 00:29:25;;;;;;;10.23;4.78;;;;;;;9.37;100.00;98935.03;1608771;87;20972;-74
2021/05/21 00:31:52;;;;;;;10.58;4.85;;;;;;;9.39;100.00;98938.26;1592169;90;20974;-74
2021/05/21 00:34:18;;;;;;;11.65;4.80;;;;;;;9.40;100.00;98943.98;1608808;89;20920;-74
2021/05/21 00:36:45;;;;;;;11.73;5.25;;;;;;;9.41;100.00;98952.44;1608787;89;21475;-76
2021/05/21 00:39:13;;;;;;;9.03;4.35;;;;;;;9.40;100.00;98946.16;1592121;90;21049;-75
2021/05/21 00:41:39;;;;;;;10.03;4.72;;;;;;;9.39;100.00;98954.70;1608858;88;21035;-74
2021/05/21 00:44:06;;;;;;;10.80;4.85;;;;;;;9.36;100.00;98956.70;1608936;89;20992;-73
2021/05/21 00:46:33;;;;;;;7.55;3.80;;;;;;;9.33;100.00;98959.53;1592163;90;20982;-73
2021/05/21 00:49:00;;;;;;;7.92;4.22;;;;;;;9.30;100.00;98953.88;1608895;87;21597;-74
2021/05/21 00:51:26;;;;;;;16.57;4.83;;;;;;;9.30;100.00;98961.53;1608549;89;21738;-71
2021/05/21 00:53:53;;;;;;;10.53;5.55;;;;;;;9.32;100.00;98957.91;1608788;89;21003;-71
2021/05/21 00:56:19;;;;;;;4.70;3.37;;;;;;;9.34;100.00;98954.86;1592182;90;21613;-70
2021/05/21 00:58:46;;;;;;;10.90;4.47;;;;;;;9.37;100.00;98961.87;1611687;88;20984;-70
2021/05/21 01:01:13;;;;;;;7.20;4.30;;;;;;;9.35;100.00;98958.64;1618491;88;20999;-70
2021/05/21 01:03:41;;;;;;;19.00;4.90;;;;;;;9.35;100.00;98955.91;1601652;89;21619;-71
2021/05/21 01:06:08;;;;;;;13.58;4.47;;;;;;;9.32;100.00;98953.80;1618500;88;20956;-71
2021/05/21 01:08:35;;;;;;;12.30;4.87;;;;;;;9.30;100.00;98957.42;1618375;88;20968;-71
2021/05/21 01:11:05;;;;;;;16.60;4.47;;;;;;;9.27;100.00;98949.86;1601473;89;21061;-71
2021/05/21 01:13:33;;;;;;;14.03;4.40;;;;;;;9.24;100.00;98949.94;1618419;88;20991;-72
2021/05/21 01:15:59;;;;;;;10.48;4.05;;;;;;;9.21;100.00;98950.61;1618362;88;21078;-70
2021/05/21 01:18:26;;;;;;;9.90;4.50;;;;;;;9.21;100.00;98948.43;1600829;89;21403;-71
2021/05/21 01:20:53;;;;;;;7.90;4.30;;;;;;;9.19;100.00;98959.70;1618445;87;21020;-74
2021/05/21 01:23:19;;;;;;;11.05;4.75;;;;;;;9.16;100.00;98957.61;1618579;88;21661;-73
2021/05/21 01:25:46;;;;;;;9.58;3.83;;;;;;;9.16;100.00;98957.61;1601716;89;20933;-73
2021/05/21 01:28:15;;;;;;;10.05;3.83;;;;;;;9.14;100.00;98961.79;1618564;88;21109;-73
2021/05/21 01:30:40;;;;;;;15.38;4.72;;;;;;;9.09;100.00;98958.64;1618481;88;21055;-73
2021/05/21 01:33:10;;;;;;;13.18;3.98;;;;;;;9.08;99.88;98965.80;1601548;89;20977;-73
2021/05/21 01:35:38;;;;;;;7.87;4.12;;;;;;;9.02;99.88;98966.52;1618453;88;20956;-73
2021/05/21 01:38:05;;;;;;;16.75;4.55;;;;;;;8.99;100.00;98971.27;1618316;88;21019;-73
2021/05/21 01:40:32;;;;;;;11.00;4.92;;;;;;;8.99;100.00;98978.67;1601505;89;21029;-73
2021/05/21 01:43:00;;;;;;;9.48;4.25;;;;;;;8.96;100.00;98975.20;1618515;88;21558;-73
2021/05/21 01:45:27;;;;;;;9.40;3.75;;;;;;;8.96;100.00;98976.57;1618472;88;20968;-73
2021/05/21 01:47:54;;;;;;;6.75;3.62;;;;;;;8.97;100.00;98980.36;1601435;89;21057;-73
2021/05/21 01:50:20;;;;;;;9.58;3.80;;;;;;;9.00;100.00;98982.46;1618535;88;21015;-73
2021/05/21 01:52:47;;;;;;;6.42;3.58;;;;;;;9.04;100.00;98977.96;1618543;88;21097;-73
2021/05/21 01:55:14;;;;;;;6.83;3.58;;;;;;;9.07;100.00;98981.42;1601578;89;20993;-73
2021/05/21 01:57:40;;;;;;;9.25;3.80;;;;;;;9.09;100.00;98980.55;1618429;88;21047;-73
2021/05/21 02:00:09;;;;;;;6.90;3.37;;;;;;;9.10;100.00;98983.53;1611581;88;21502;-73
2021/05/21 02:02:42;;;;;;;5.10;3.33;;;;;;;9.10;100.00;98984.09;1592329;90;21567;-73
2021/05/21 02:05:10;;;;;;;10.95;3.77;;;;;;;9.07;100.00;98988.27;1609045;89;21097;-73
2021/05/21 02:07:38;;;;;;;8.28;3.87;;;;;;;9.05;100.00;98989.72;1608861;89;20932;-73
2021/05/21 02:10:08;;;;;;;7.00;3.60;;;;;;;9.02;100.00;98993.90;1592329;90;20910;-73
2021/05/21 02:12:35;;;;;;;6.60;3.55;;;;;;;9.01;100.00;98993.66;1583312;89;21022;-73
2021/05/21 02:15:07;;;;;;;9.05;3.50;;;;;;;9.00;100.00;98996.15;1608895;89;21558;-73
2021/05/21 02:17:33;;;;;;;10.75;3.83;;;;;;;8.96;100.00;98995.17;1583561;90;21640;-73
2021/05/21 02:20:02;;;;;;;9.83;3.70;;;;;;;8.93;100.00;98997.98;1608892;87;21582;-71
2021/05/21 02:22:31;;;;;;;5.97;3.37;;;;;;;8.90;99.87;99004.09;1608919;89;20928;-71
2021/05/21 02:24:59;;;;;;;7.95;4.00;;;;;;;8.87;99.98;99003.36;1592185;90;21030;-70
2021/05/21 02:27:27;;;;;;;6.15;3.47;;;;;;;8.85;100.00;98994.66;1609087;89;20916;-73
2021/05/21 02:29:53;;;;;;;9.20;3.90;;;;;;;8.84;100.00;98998.52;1608796;89;21101;-73
2021/05/21 02:32:20;;;;;;;4.75;3.27;;;;;;;8.84;100.00;98994.97;1592083;90;21659;-70
2021/05/21 02:34:46;;;;;;;5.22;3.42;;;;;;;8.85;100.00;99002.87;1608932;89;21514;-70
2021/05/21 02:37:14;;;;;;;8.33;3.60;;;;;;;8.87;100.00;99001.98;1609030;89;21024;-70
2021/05/21 02:39:41;;;;;;;7.35;3.30;;;;;;;8.88;100.00;99000.86;1592213;90;20973;-70
2021/05/21 02:42:07;;;;;;;8.03;3.37;;;;;;;8.93;100.00;99007.56;1609023;89;21109;-71
2021/05/21 02:44:34;;;;;;;4.58;2.77;;;;;;;8.99;100.00;99013.70;1608865;89;21075;-70
2021/05/21 02:47:01;;;;;;;4.83;2.55;;;;;;;9.05;100.00;99011.06;1592124;90;21659;-71
2021/05/21 02:49:29;;;;;;;5.17;2.83;;;;;;;9.12;100.00;99016.88;1609074;88;20936;-73
2021/05/21 02:51:56;;;;;;;9.55;3.00;;;;;;;9.20;99.68;99020.20;1608958;89;20916;-74
2021/05/21 02:54:24;;;;;;;6.30;2.75;;;;;;;9.27;99.50;99017.77;1592182;90;21458;-74
2021/05/21 02:56:50;;;;;;;7.65;3.40;;;;;;;9.35;99.08;99018.91;1608739;89;21019;-72
2021/05/21 02:59:18;;;;;;;11.05;2.72;;;;;;;9.42;98.83;99019.80;1607106;89;20956;-72
2021/05/21 03:01:45;;;;;;;8.03;2.62;;;;;;;9.50;98.42;99016.27;1576442;91;21563;-72
2021/05/21 03:04:12;;;;;;;6.17;2.60;;;;;;;9.59;98.80;99017.89;1600764;89;21039;-73
2021/05/21 03:06:38;;;;;;;4.47;2.67;;;;;;;9.73;98.63;99023.77;1596891;89;21106;-72
2021/05/21 03:09:07;;;;;;;5.92;2.60;;;;;;;9.77;97.74;99025.55;1603572;89;20949;-73
2021/05/21 03:11:35;;;;;;;5.15;2.40;;;;;;;9.82;97.14;99025.95;1589292;90;20941;-72
2021/05/21 03:14:03;;;;;;;5.97;2.37;;;;;;;9.85;96.71;99021.97;1589353;90;21591;-73
2021/05/21 03:16:29;;;;;;;8.15;2.20;;;;;;;9.90;95.89;99036.88;1589367;90;21049;-73
2021/05/21 03:18:57;;;;;;;5.80;2.35;;;;;;;9.94;95.08;99033.73;1588412;90;21110;-73
2021/05/21 03:21:23;;;;;;;3.40;2.17;;;;;;;9.99;94.73;99037.45;1588092;89;20986;-73
2021/05/21 03:23:50;;;;;;;3.92;2.20;;;;;;;10.02;93.97;99043.66;1588332;90;21471;-74
2021/05/21 03:26:18;;;;;;;9.83;2.15;;;;;;;10.05;93.92;99045.75;1588286;90;21582;-74
2021/05/21 03:28:45;;;;;;;3.60;2.20;;;;;;;10.06;93.80;99044.05;1588259;90;20946;-74
2021/05/21 03:31:11;;;;;;;4.30;2.30;;;;;;;10.10;93.48;99042.84;1588346;90;21067;-74
2021/05/21 03:33:38;;;;;;;5.05;2.12;;;;;;;10.16;93.12;99047.03;1588326;90;21547;-74
2021/05/21 03:36:06;;;;;;;5.05;2.05;;;;;;;10.21;92.47;99053.75;1588349;90;20986;-74
2021/05/21 03:38:32;;;;;;;3.47;2.00;;;;;;;10.27;92.27;99055.19;1588239;90;21022;-74
2021/05/21 03:41:01;;;;;;;6.97;2.10;;;;;;;10.35;92.10;99050.83;1588125;90;21564;-74
2021/05/21 03:43:27;;;;;;;3.95;1.82;;;;;;;10.41;91.77;99050.86;1588300;90;21110;-74
2021/05/21 03:45:54;;;;;;;7.90;2.17;;;;;;;10.46;91.58;99044.63;1588098;90;21014;-75
2021/05/21 03:48:20;;;;;;;3.30;2.00;;;;;;;10.54;91.17;99047.92;1588274;90;21025;-74
2021/05/21 03:50:47;;;;;;;4.87;2.17;;;;;;;10.61;90.67;99046.05;1587923;90;21585;-74
2021/05/21 03:53:15;;;;;;;3.20;2.15;;;;;;;10.67;90.00;99050.23;1588152;90;21014;-74
2021/05/21 03:55:44;;;;;;;5.62;2.02;;;;;;;10.74;89.69;99051.09;1588152;90;21021;-73
2021/05/21 03:58:10;;;;;;;4.87;2.12;;;;;;;10.78;88.28;99047.36;1588009;90;21021;-73
2021/05/21 04:00:37;;;;;;;5.85;2.10;;;;;;;10.82;87.94;99051.06;1589845;89;20970;-71
2021/05/21 04:03:06;;;;;;;6.25;1.98;;;;;;;10.86;87.61;99049.27;1591017;90;21671;-73
2021/05/21 04:05:33;;;;;;;3.02;1.75;;;;;;;10.89;87.68;99050.55;1590985;89;21017;-71
2021/05/21 04:08:00;;;;;;;5.62;1.85;;;;;;;10.95;87.19;99053.35;1591055;90;21090;-71
2021/05/21 04:10:27;;;;;;;4.12;1.95;;;;;;;10.99;87.14;99055.64;1590974;90;20970;-71
2021/05/21 04:12:55;;;;;;;5.67;1.90;;;;;;;11.06;86.93;99062.80;1591141;89;21469;-71
2021/05/21 04:15:22;;;;;;;4.87;1.80;;;;;;;11.14;87.51;99066.08;1591014;90;21808;-71
2021/05/21 04:17:48;;;;;;;7.90;1.60;;;;;;;11.25;86.68;99068.69;1591074;90;20954;-73
2021/05/21 04:20:15;;;;;;;3.83;1.87;;;;;;;11.32;85.39;99068.17;1590924;90;21042;-71
2021/05/21 04:22:41;;;;;;;3.10;1.92;;;;;;;11.38;85.13;99068.78;1591036;90;20966;-74
2021/05/21 04:25:10;;;;;;;3.22;2.08;;;;;;;11.47;85.23;99071.72;1590996;90;21430;-73
2021/05/21 04:27:36;;;;;;;6.97;2.20;;;;;;;11.54;83.96;99074.75;1591105;90;20962;-73
2021/05/21 04:30:05;;;;;;;4.42;1.80;;;;;;;11.65;84.17;99079.83;1591067;89;21031;-73
2021/05/21 04:32:31;;;;;;;6.10;1.90;;;;;;;11.72;83.17;99074.03;1591145;89;21073;-73
2021/05/21 04:34:59;;;;;;;2.52;1.60;;;;;;;11.81;83.61;99080.88;1591063;89;21080;-73
2021/05/21 04:37:25;;;;;;;2.55;1.72;;;;;;;11.94;83.40;99078.43;1591088;90;21513;-73
2021/05/21 04:39:52;;;;;;;3.70;1.77;;;;;;;12.05;83.50;99085.70;1590973;89;21641;-73
2021/05/21 04:42:18;;;;;;;2.00;1.47;;;;;;;12.17;82.58;99087.11;1591091;90;20970;-73
2021/05/21 04:44:45;;;;;;;7.33;1.80;;;;;;;12.26;82.12;99086.47;1591028;89;21048;-72
2021/05/21 04:47:13;;;;;;;1.52;1.30;;;;;;;12.35;82.07;99090.52;1590788;89;20970;-72
2021/05/21 04:49:39;;;;;;;4.90;1.80;;;;;;;12.43;80.28;99087.69;1591062;90;21465;-72
2021/05/21 04:52:09;;;;;;;4.12;1.82;;;;;;;12.51;80.83;99098.38;1590984;90;20958;-72
2021/05/21 04:54:37;;;;;;;10.35;2.27;;;;;;;12.54;80.85;99094.37;1567831;90;21043;-72
2021/05/21 04:57:05;;;;;;;3.00;1.72;;;;;;;12.59;80.59;99101.62;1590133;90;21731;-73
2021/05/21 04:59:32;;;;;;;3.42;1.52;;;;;;;12.62;79.44;99101.51;1585926;89;21038;-76
2021/05/21 05:01:59;;;;;;;4.08;1.50;;;;;;;12.59;79.09;99102.99;1587177;90;21048;-74
2021/05/21 05:04:25;;;;;;;3.87;1.90;;;;;;;12.52;78.24;99102.17;1587338;90;21049;-73
2021/05/21 05:06:53;;;;;;;3.85;2.02;;;;;;;12.49;78.58;99102.84;1586966;90;21102;-71
2021/05/21 05:09:20;;;;;;;2.62;1.75;;;;;;;12.47;77.57;99108.45;1584299;90;21100;-73
2021/05/21 05:11:47;;;;;;;5.37;1.60;;;;;;;12.40;77.76;99114.51;1588075;90;20935;-71
2021/05/21 05:14:14;;;;;;;5.00;1.70;;;;;;;12.37;78.41;99116.56;1588044;90;21010;-76
2021/05/21 05:16:40;;;;;;;7.05;1.75;;;;;;;12.39;79.05;99121.73;1588286;90;21640;-73
2021/05/21 05:19:07;;;;;;;5.87;1.90;;;;;;;12.42;79.30;99122.43;1587711;90;20993;-73
2021/05/21 05:21:40;;;;;;;2.33;1.30;;;;;;;12.46;79.51;99133.00;1587230;90;21169;-84
2021/05/21 05:24:18;;;;;;;4.75;2.12;;;;;;;12.52;79.58;99137.96;1587099;90;21058;-73
2021/05/21 05:26:45;;;;;;;3.40;1.87;;;;;;;12.57;78.94;99139.70;1587195;90;21636;-75
2021/05/21 05:29:12;;;;;;;2.72;1.65;;;;;;;12.62;79.52;99142.81;1587584;90;21045;-78
2021/05/21 05:31:39;;;;;;;9.50;2.00;;;;;;;12.70;79.58;99140.55;1588008;90;21661;-81
2021/05/21 05:34:06;;;;;;;5.28;2.00;;;;;;;12.76;78.67;99146.05;1587949;90;21624;-73
2021/05/21 05:36:33;;;;;;;10.70;5.33;;;;;;;12.85;78.97;99144.01;1586987;90;21010;-78
2021/05/21 05:39:00;;;;;;;6.87;2.12;;;;;;;12.98;77.98;99144.27;1586808;90;21034;-79
2021/05/21 05:41:27;;;;;;;5.87;1.70;;;;;;;13.06;77.53;99144.75;1585349;90;21136;-83
2021/05/21 05:43:53;;;;;;;5.62;2.15;;;;;;;13.11;75.99;99143.73;1586800;90;21095;-77
2021/05/21 05:46:21;;;;;;;2.98;1.95;;;;;;;13.12;75.40;99144.77;1586514;90;21865;-74
2021/05/21 05:48:48;;;;;;;3.87;1.90;;;;;;;13.14;76.15;99145.22;1582757;90;21102;-74
2021/05/21 05:51:15;;;;;;;7.10;1.95;;;;;;;13.14;75.54;99141.09;1586481;90;21155;-72
2021/05/21 05:53:42;;;;;;;5.72;1.75;;;;;;;13.17;75.40;99145.14;1560257;90;21165;-73
2021/05/21 05:56:09;;;;;;;4.58;1.82;;;;;;;13.18;75.07;99142.05;1583848;90;20936;-73
2021/05/21 05:58:36;;;;;;;5.10;1.65;;;;;;;13.24;75.33;99147.34;1586855;90;21068;-73
2021/05/21 06:01:03;;;;;;;4.42;1.72;;;;;;;13.29;74.15;99144.33;1586783;89;21749;-75
2021/05/21 06:03:29;;;;;;;6.40;1.47;;;;;;;13.30;74.44;99148.12;1587011;90;21975;-72
2021/05/21 06:05:56;;;;;;;2.98;1.70;;;;;;;13.34;74.43;99149.61;1586961;90;20974;-73
2021/05/21 06:08:23;;;;;;;5.83;1.55;;;;;;;13.36;73.84;99142.61;1585936;90;21129;-74
2021/05/21 06:10:51;;;;;;;3.20;1.67;;;;;;;13.34;73.25;99142.72;1586843;90;21072;-72
2021/05/21 06:13:24;;;;;;;5.87;1.75;;;;;;;13.35;74.10;99144.33;1586881;90;21007;-79
2021/05/21 06:15:51;;;;;;;5.75;1.60;;;;;;;13.36;73.61;99150.88;1587023;90;21492;-76
2021/05/21 06:18:17;;;;;;;3.30;1.52;;;;;;;13.37;73.01;99146.17;1586823;90;20959;-73
2021/05/21 06:20:43;;;;;;;2.45;1.85;;;;;;;13.31;73.37;99147.55;1586815;90;21011;-74
2021/05/21 06:23:10;;;;;;;2.98;1.45;;;;;;;13.31;73.93;99151.11;1586855;90;21076;-73
2021/05/21 06:25:54;;;;;;;2.98;1.55;;;;;;;13.38;73.48;99145.02;1586719;90;21054;-71
2021/05/21 06:28:08;;;;;;;2.60;1.25;;;;;;;13.46;73.75;99151.00;1584531;90;21538;-75
2021/05/21 06:30:35;;;;;;;2.22;1.30;;;;;;;13.59;73.18;99152.62;1586802;90;21593;-76
2021/05/21 06:33:02;;;;;;;3.20;1.45;;;;;;;13.71;72.63;99155.37;1586799;90;20966;-75
2021/05/21 06:35:29;;;;;;;7.67;1.60;;;;;;;13.85;72.53;99155.82;1586754;89;21042;-72
2021/05/21 06:41:27;;;;;;;2.30;1.62;;;;;;;14.04;70.57;99164.05;1586641;90;20962;-76
2021/05/21 06:43:53;;;;;;;4.42;1.70;;;;;;;14.19;69.81;99164.70;1587529;89;21643;-75
2021/05/21 06:46:22;;;;;;;3.50;1.57;;;;;;;14.27;69.42;99161.58;1587773;90;21073;-76
2021/05/21 06:48:50;;;;;;;6.03;1.60;;;;;;;14.32;69.96;99160.77;1588100;90;20986;-77
2021/05/21 06:51:16;;;;;;;5.12;2.00;;;;;;;14.36;69.35;99161.67;1588105;89;20950;-89
2021/05/21 06:53:42;;;;;;;7.00;1.95;;;;;;;14.32;69.58;99164.10;1588122;90;21042;-80
2021/05/21 06:56:12;;;;;;;6.65;1.70;;;;;;;14.28;69.22;99162.61;1588211;90;21007;-79
2021/05/21 06:58:38;;;;;;;8.50;1.40;;;;;;;14.26;69.31;99171.02;1588085;88;21039;-77
2021/05/21 07:01:05;;;;;;;3.62;1.50;;;;;;;14.31;69.93;99168.82;1589174;89;21534;-78
2021/05/21 07:03:32;;;;;;;3.37;1.50;;;;;;;14.44;71.11;99172.38;1590976;90;21061;-77
2021/05/21 07:05:59;;;;;;;8.88;1.60;;;;;;;14.68;71.94;99171.46;1591086;90;21018;-77
2021/05/21 07:08:26;;;;;;;7.15;1.45;;;;;;;14.93;70.51;99174.91;1590909;90;20965;-78
2021/05/21 07:10:53;;;;;;;3.33;1.80;;;;;;;15.13;67.31;99170.51;1591032;90;20973;-78
2021/05/21 07:13:19;;;;;;;2.25;1.57;;;;;;;15.25;67.77;99176.55;1590895;90;21060;-78
2021/05/21 07:15:46;;;;;;;3.33;1.40;;;;;;;15.40;66.95;99170.22;1591060;89;20962;-77
2021/05/21 07:18:14;;;;;;;4.17;1.10;;;;;;;15.50;65.98;99166.92;1591186;90;21038;-77
2021/05/21 07:20:42;;;;;;;3.87;1.30;;;;;;;15.62;66.04;99172.94;1590624;90;21676;-78
2021/05/21 07:23:08;;;;;;;1.47;1.15;;;;;;;15.74;64.59;99176.19;1590790;90;20970;-77
2021/05/21 07:25:35;;;;;;;2.22;1.32;;;;;;;15.83;64.40;99169.89;1590892;90;21459;-77
2021/05/21 07:28:02;;;;;;;4.35;1.20;;;;;;;15.88;61.25;99169.61;1591042;90;21049;-76
2021/05/21 07:30:28;;;;;;;5.12;1.45;;;;;;;15.96;62.38;99176.12;1591083;89;20934;-75
2021/05/21 07:32:54;;;;;;;1.27;1.05;;;;;;;16.14;62.54;99174.56;1591080;89;21021;-76
2021/05/21 07:35:23;;;;;;;1.92;1.25;;;;;;;16.25;60.40;99176.95;1591051;90;21587;-76
2021/05/21 07:37:51;;;;;;;1.90;1.20;;;;;;;16.31;60.23;99172.73;1591073;90;21659;-73
2021/05/21 07:40:21;;;;;;;3.15;1.10;;;;;;;16.39;59.96;99180.03;1590592;90;21662;-79
2021/05/21 07:42:48;;;;;;;2.27;1.32;;;;;;;16.39;61.65;99180.03;1591015;90;20991;-83
2021/05/21 07:45:14;;;;;;;4.45;0.95;;;;;;;16.48;59.87;99185.36;1590868;90;21129;-79
2021/05/21 07:47:41;;;;;;;4.30;1.05;;;;;;;16.45;57.82;99184.70;1590175;90;21053;-80
2021/05/21 07:50:10;;;;;;;3.45;1.02;;;;;;;16.37;58.68;99189.30;1590654;89;21826;-79
2021/05/21 07:52:36;;;;;;;2.60;1.32;;;;;;;16.36;58.03;99186.30;1590930;89;21106;-77
2021/05/21 07:55:05;;;;;;;4.17;1.15;;;;;;;16.41;59.87;99186.02;1590958;89;21104;-73
2021/05/21 07:57:33;;;;;;;3.33;1.02;;;;;;;16.53;59.65;99182.89;1591024;90;20993;-74
2021/05/21 07:59:59;;;;;;;2.67;1.00;;;;;;;16.67;57.63;99177.09;1590855;89;21030;-76
2021/05/21 08:02:26;;;;;;;3.35;0.95;;;;;;;16.82;59.83;99173.99;1590010;88;21088;-74
2021/05/21 08:04:52;;;;;;;4.00;0.88;;;;;;;17.05;58.28;99180.97;1590840;90;21050;-73
2021/05/21 08:07:20;;;;;;;1.57;0.90;;;;;;;17.32;55.12;99176.31;1590808;90;20946;-71
2021/05/21 08:09:50;;;;;;;0.60;0.60;;;;;;;17.58;52.93;99174.96;1590964;89;20982;-70
2021/05/21 08:12:16;;;;;;;1.85;0.90;;;;;;;17.89;53.42;99176.68;1590967;90;21631;-71
2021/05/21 08:14:44;;;;;;;0.88;0.60;;;;;;;18.21;50.86;99174.35;1592131;90;20998;-69
2021/05/21 08:17:11;;;;;;;2.33;0.93;;;;;;;18.36;49.56;99173.96;1591062;90;21029;-70
2021/05/21 08:19:38;;;;;;;1.50;0.90;;;;;;;18.66;52.58;99175.34;1590920;89;21611;-73
2021/05/21 08:22:05;;;;;;;0.82;0.80;;;;;;;19.01;47.61;99175.77;1590950;90;21117;-70
2021/05/21 08:24:32;;;;;;;1.37;0.95;;;;;;;19.13;48.41;99181.62;1591063;90;20985;-73
2021/05/21 08:26:59;;;;;;;1.85;0.70;;;;;;;19.35;51.86;99181.25;1589541;90;21429;-71
2021/05/21 08:29:26;;;;;;;1.00;0.90;;;;;;;19.64;46.58;99176.77;1590308;89;21010;-74
2021/05/21 08:31:52;;;;;;;3.22;0.80;;;;;;;19.74;48.39;99180.20;1590645;90;21050;-72
2021/05/21 08:34:19;;;;;;;1.67;0.65;;;;;;;19.91;47.33;99185.11;1590534;90;21033;-71
2021/05/21 08:36:48;;;;;;;1.02;0.75;;;;;;;20.09;45.73;99176.88;1590502;89;21568;-72
2021/05/21 08:39:14;;;;;;;1.40;0.70;;;;;;;20.17;42.95;99175.74;1590256;89;21080;-73
2021/05/21 08:41:44;;;;;;;3.92;0.70;;;;;;;20.19;46.10;99187.89;1590501;90;21009;-73
2021/05/21 08:44:11;;;;;;;2.40;0.70;;;;;;;20.46;46.34;99189.25;1590736;88;20962;-74
2021/05/21 08:46:37;;;;;;;1.90;0.80;;;;;;;20.71;42.30;99188.78;1590905;90;21156;-81
2021/05/21 08:49:04;;;;;;;1.80;0.80;;;;;;;20.65;40.53;99180.58;1590784;90;21053;-74
2021/05/21 08:51:31;;;;;;;3.22;0.90;;;;;;;20.57;42.07;99185.13;1590264;90;21105;-81
2021/05/21 08:53:57;;;;;;;2.47;0.82;;;;;;;20.77;46.29;99189.20;1590672;90;21052;-80
2021/05/21 08:56:24;;;;;;;2.30;1.12;;;;;;;21.27;43.18;99186.56;1590692;90;21100;-77
2021/05/21 08:58:51;;;;;;;2.15;0.90;;;;;;;21.73;41.75;99193.57;1590506;89;21140;-73
2021/05/21 09:01:19;;;;;;;1.95;0.80;;;;;;;21.95;38.92;99190.94;1589898;89;21056;-74
2021/05/21 09:03:48;;;;;;;2.95;0.50;;;;;;;21.96;37.73;99187.55;1587768;89;21723;-73
2021/05/21 09:06:23;;;;;;;1.85;0.93;;;;;;;21.93;37.64;99196.16;1588035;89;21633;-73
2021/05/21 09:08:56;;;;;;;5.42;0.78;;;;;;;21.94;37.51;99191.38;1587718;90;21499;-71
2021/05/21 09:11:31;;;;;;;3.08;0.70;;;;;;;21.91;38.02;99198.56;1600680;89;21045;-70
2021/05/21 09:14:07;;;;;;;3.22;0.88;;;;;;;21.83;37.32;99198.96;1565105;91;20944;-71
2021/05/21 09:16:38;;;;;;;2.65;1.00;;;;;;;21.74;41.96;99204.95;1591586;90;21814;-74
2021/05/21 09:19:08;;;;;;;4.95;0.80;;;;;;;21.94;37.55;99206.14;1601509;89;21630;-72
2021/05/21 09:22:06;;;;;;;1.40;0.85;;;;;;;22.06;38.54;99198.75;1601559;89;21579;-72
2021/05/21 09:24:41;;;;;;;2.77;0.80;;;;;;;22.30;40.11;99191.52;1600672;89;21124;-73
2021/05/21 09:27:08;;;;;;;1.57;0.88;;;;;;;22.53;39.44;99195.86;1600679;89;21524;-73
2021/05/21 09:29:53;;;;;;;2.10;0.90;;;;;;;22.36;37.50;99198.91;1600204;88;21105;-72
2021/05/21 09:32:24;;;;;;;1.47;0.70;;;;;;;22.29;40.37;99192.72;1599924;89;22238;-75
2021/05/21 09:35:11;;;;;;;3.62;0.62;;;;;;;22.51;37.56;99194.07;1600764;89;21072;-73
2021/05/21 09:37:38;;;;;;;4.78;0.80;;;;;;;22.70;35.23;99197.17;1598604;89;21044;-73
2021/05/21 09:40:21;;;;;;;1.20;0.70;;;;;;;22.95;37.95;99198.50;1601090;89;21581;-73
2021/05/21 09:43:02;;;;;;;3.52;0.78;;;;;;;23.16;37.74;99196.16;1576441;91;21524;-72
2021/05/21 09:45:35;;;;;;;1.92;0.80;;;;;;;23.02;34.24;99206.86;1601390;89;21752;-73
2021/05/21 09:48:06;;;;;;;0.72;0.53;;;;;;;22.84;35.58;99196.35;1578553;89;21040;-73
2021/05/21 09:50:43;;;;;;;1.77;0.50;;;;;;;22.86;33.97;99192.55;1575699;91;21058;-75
2021/05/21 09:53:14;;;;;;;3.30;0.60;;;;;;;22.91;34.99;99195.52;1601259;89;21579;-73
2021/05/21 09:55:47;;;;;;;6.70;1.10;;;;;;;22.97;35.30;99194.70;1601338;88;21130;-72
2021/05/21 09:58:37;;;;;;;1.87;1.00;;;;;;;22.98;34.83;99192.09;1576546;90;20990;-71
2021/05/21 10:01:24;;;;;;;0.75;0.70;;;;;;;22.85;33.83;99196.55;1601777;89;20944;-71
2021/05/21 10:03:55;;;;;;;4.97;0.75;;;;;;;22.62;33.61;99196.20;1601472;88;20985;-72
2021/05/21 10:06:24;;;;;;;4.50;0.73;;;;;;;22.63;33.60;99193.60;1576773;91;21002;-73
2021/05/21 10:08:52;;;;;;;2.40;0.80;;;;;;;22.71;37.95;99192.37;1601678;89;21109;-73
2021/05/21 10:11:18;;;;;;;1.77;0.72;;;;;;;22.74;36.14;99187.37;1601498;89;21086;-73
2021/05/21 10:13:46;;;;;;;6.10;1.20;;;;;;;22.44;35.74;99185.70;1601504;88;21566;-73
2021/05/21 10:16:14;;;;;;;1.32;0.68;;;;;;;22.03;34.82;99192.56;1601156;89;20993;-73
2021/05/21 10:18:51;;;;;;;11.95;0.70;;;;;;;21.83;34.64;99196.97;1576503;91;21462;-73
2021/05/21 10:21:18;;;;;;;1.20;0.60;;;;;;;21.89;33.86;99183.39;1601568;89;21499;-73
2021/05/21 10:24:02;;;;;;;1.90;0.85;;;;;;;21.95;34.19;99190.17;1601446;89;21623;-73
2021/05/21 10:26:33;;;;;;;0.70;0.57;;;;;;;22.21;32.95;99190.34;1601473;88;20901;-73
2021/05/21 10:29:07;;;;;;;2.30;0.78;;;;;;;22.38;35.06;99192.31;1599060;88;21151;-73
2021/05/21 10:31:36;;;;;;;6.80;0.93;;;;;;;22.76;34.83;99191.95;1599709;89;21672;-74
2021/05/21 10:34:15;;;;;;;3.30;1.20;;;;;;;23.06;29.66;99191.45;1599811;89;21535;-73
2021/05/21 10:37:24;;;;;;;1.25;0.70;;;;;;;22.98;31.27;99196.89;1599684;89;20972;-74
2021/05/21 10:40:25;;;;;;;2.30;1.02;;;;;;;23.09;32.35;99194.84;1599865;89;21003;-74
2021/05/21 10:43:17;;;;;;;3.50;1.77;;;;;;;23.38;33.43;99193.44;1599629;89;21015;-74
2021/05/21 10:45:54;;;;;;;1.12;0.93;;;;;;;23.76;33.30;99198.37;1598291;89;21096;-74
2021/05/21 10:48:28;;;;;;;7.12;0.90;;;;;;;24.00;31.68;99195.36;1599776;89;21098;-73
2021/05/21 10:51:11;;;;;;;0.60;0.60;;;;;;;23.99;31.36;99206.38;1591612;89;21599;-72
2021/05/21 10:53:46;;;;;;;3.25;0.68;;;;;;;23.86;30.01;99196.09;1602897;89;20961;-72
2021/05/21 10:56:14;;;;;;;1.02;0.60;;;;;;;23.73;30.73;99204.80;1590466;90;21087;-73
2021/05/21 10:58:44;;;;;;;1.37;0.80;;;;;;;23.78;31.43;99204.36;1590465;90;21065;-73
2021/05/21 11:01:27;;;;;;;7.33;0.80;;;;;;;23.74;30.97;99199.39;1599569;89;21739;-73
2021/05/21 11:04:03;;;;;;;1.60;0.55;;;;;;;23.64;31.10;99197.69;1573501;91;20969;-72
2021/05/21 11:06:31;;;;;;;1.30;0.62;;;;;;;23.56;29.21;99191.94;1599622;89;21048;-73
2021/05/21 11:09:07;;;;;;;1.90;0.80;;;;;;;23.24;28.86;99196.32;1573292;91;20941;-76
2021/05/21 11:11:55;;;;;;;2.05;1.07;;;;;;;22.96;30.70;99201.50;1599846;89;21610;-72
2021/05/21 11:14:32;;;;;;;4.22;0.90;;;;;;;22.99;31.27;99202.08;1573137;91;21651;-72
2021/05/21 11:17:12;;;;;;;1.50;0.42;;;;;;;22.99;30.78;99199.88;1599644;89;21579;-72
2021/05/21 11:20:02;;;;;;;1.05;0.70;;;;;;;22.96;31.19;99200.70;1573489;91;20993;-72
2021/05/21 11:22:37;;;;;;;5.08;1.02;;;;;;;23.04;29.51;99192.46;1589072;89;21561;-72
2021/05/21 11:25:17;;;;;;;3.75;1.00;;;;;;;22.77;30.03;99193.55;1573431;91;21044;-74
2021/05/21 11:27:44;;;;;;;9.85;1.10;;;;;;;22.42;31.25;99197.89;1599618;89;21144;-73
2021/05/21 11:30:18;;;;;;;2.83;0.68;;;;;;;22.25;31.32;99192.53;1576656;89;21067;-72
2021/05/21 11:32:44;;;;;;;0.98;0.62;;;;;;;22.27;31.10;99199.31;1573571;91;21037;-72
2021/05/21 11:35:12;;;;;;;2.77;0.80;;;;;;;22.21;30.47;99193.14;1599504;89;21051;-73
2021/05/21 11:37:40;;;;;;;5.42;1.10;;;;;;;21.95;31.39;99203.52;1573353;91;21578;-73
2021/05/21 11:40:08;;;;;;;2.47;0.90;;;;;;;21.88;31.91;99207.73;1599693;89;21396;-73
2021/05/21 11:42:37;;;;;;;4.80;0.78;;;;;;;22.16;32.57;99204.73;1573182;91;20989;-72